createdAt,value
2022-09-10T08:28:50.972Z,5.50
2022-09-10T08:31:56.320Z,11.57
2022-09-10T08:35:06.412Z,6.40
2022-09-10T08:38:12.956Z,4.20
2022-09-10T08:41:25.890Z,6.60
2022-09-10T08:44:37.202Z,4.40
2022-09-10T08:47:48.112Z,5.32
2022-09-10T08:50:55.977Z,8.32
2022-09-10T08:54:05.791Z,4.10
2022-09-10T08:57:16.316Z,6.57
2022-09-10T09:00:24.883Z,6.00
2022-09-10T09:06:37.253Z,7.25
2022-09-10T09:09:43.212Z,3.33
2022-09-10T09:12:53.035Z,5.90
2022-09-10T09:16:05.010Z,5.40
2022-09-10T09:19:17.250Z,4.88
2022-09-10T09:22:23.625Z,6.43
2022-09-10T09:25:30.994Z,3.83
2022-09-10T09:28:42.186Z,5.45
2022-09-10T09:31:52.081Z,9.25
2022-09-10T09:34:58.077Z,4.10
2022-09-10T09:38:15.225Z,5.68
2022-09-10T09:41:24.472Z,11.15
2022-09-10T09:44:31.794Z,4.75
2022-09-10T09:47:40.093Z,10.68
2022-09-10T09:50:46.003Z,4.90
2022-09-10T09:54:06.366Z,5.10
2022-09-10T09:57:20.879Z,4.25
2022-09-10T10:00:36.707Z,6.00
2022-09-10T10:03:52.829Z,5.50
2022-09-10T10:06:59.313Z,3.88
2022-09-10T10:10:05.283Z,6.13
2022-09-10T10:13:23.317Z,5.03
2022-09-10T10:16:35.941Z,6.57
2022-09-10T10:19:44.738Z,6.45
2022-09-10T10:22:50.380Z,5.47
2022-09-10T10:25:55.508Z,7.18
2022-09-10T10:29:04.446Z,7.20
2022-09-10T10:32:18.543Z,6.18
2022-09-10T10:35:31.168Z,6.43
2022-09-10T10:38:37.746Z,5.70
2022-09-10T10:41:50.000Z,8.13
2022-09-10T10:45:02.238Z,6.35
2022-09-10T10:48:13.806Z,3.53
2022-09-10T10:51:24.857Z,2.45
2022-09-10T10:54:37.719Z,4.82
2022-09-10T10:57:53.764Z,4.35
2022-09-10T11:01:01.750Z,3.63
2022-09-10T11:04:17.061Z,4.78
2022-09-10T11:07:28.889Z,7.40
2022-09-10T11:10:37.203Z,4.90
2022-09-10T11:13:46.222Z,3.70
2022-09-10T11:16:58.576Z,4.18
2022-09-10T11:20:27.324Z,7.82
2022-09-10T11:23:38.963Z,15.38
2022-09-10T11:26:46.886Z,7.85
2022-09-10T11:29:54.420Z,6.07
2022-09-10T11:33:02.827Z,9.05
2022-09-10T11:36:13.897Z,3.40
2022-09-10T11:39:24.818Z,6.72
2022-09-10T11:42:33.584Z,8.23
2022-09-10T11:45:43.257Z,3.38
2022-09-10T11:48:50.028Z,6.68
2022-09-10T11:51:57.151Z,2.87
2022-09-10T11:55:08.837Z,5.32
2022-09-10T11:58:16.225Z,4.22
2022-09-10T12:01:29.758Z,3.53
2022-09-10T12:04:47.546Z,4.20
2022-09-10T12:07:58.414Z,12.20
2022-09-10T12:11:14.226Z,2.85
2022-09-10T12:14:20.076Z,9.00
2022-09-10T12:17:27.699Z,3.38
2022-09-10T12:20:34.994Z,5.28
2022-09-10T12:23:42.110Z,10.98
2022-09-10T12:26:50.081Z,7.30
2022-09-10T12:29:55.389Z,2.20
2022-09-10T12:33:01.370Z,2.63
2022-09-10T12:36:06.664Z,7.25
2022-09-10T12:39:25.312Z,2.45
2022-09-10T12:42:34.789Z,4.32
2022-09-10T12:46:03.991Z,2.40
2022-09-10T12:49:13.600Z,2.20
2022-09-10T12:52:21.877Z,2.63
2022-09-10T12:55:32.267Z,4.50
2022-09-10T12:58:49.251Z,2.90
2022-09-10T13:01:54.609Z,2.58
2022-09-10T13:05:02.239Z,4.25
2022-09-10T13:08:14.516Z,2.95
2022-09-10T13:11:21.864Z,4.05
2022-09-10T13:14:30.880Z,2.53
2022-09-10T13:17:39.978Z,2.78
2022-09-10T13:20:45.131Z,2.97
2022-09-10T13:23:51.626Z,5.82
2022-09-10T13:27:05.800Z,4.07
2022-09-10T13:30:18.479Z,4.28
2022-09-10T13:33:27.963Z,2.75
2022-09-10T13:36:39.346Z,4.43
2022-09-10T13:40:00.894Z,2.90
2022-09-10T13:43:22.263Z,2.63
2022-09-10T13:46:38.311Z,5.28
2022-09-10T13:49:48.067Z,3.13
2022-09-10T13:52:55.413Z,2.90
2022-09-10T13:56:01.646Z,5.57
2022-09-10T13:59:08.233Z,4.80
2022-09-10T14:02:16.304Z,3.00
2022-09-10T14:05:28.984Z,4.88
2022-09-10T14:08:35.956Z,4.75
2022-09-10T14:11:41.850Z,6.63
2022-09-10T14:14:48.224Z,3.50
2022-09-10T14:17:57.744Z,6.25
2022-09-10T14:21:03.693Z,9.70
2022-09-10T14:24:08.768Z,5.97
2022-09-10T14:27:19.017Z,6.68
2022-09-10T14:30:27.722Z,6.63
2022-09-10T14:33:36.488Z,7.00
2022-09-10T14:36:41.700Z,5.68
2022-09-10T14:39:47.649Z,6.38
2022-09-10T14:42:53.554Z,6.25
2022-09-10T14:45:58.710Z,7.43
2022-09-10T14:49:12.154Z,6.22
2022-09-10T14:52:17.614Z,8.50
2022-09-10T14:55:23.687Z,12.55
2022-09-10T14:58:30.100Z,7.07
2022-09-10T15:01:35.895Z,11.35
2022-09-10T15:04:43.988Z,7.15
2022-09-10T15:07:49.048Z,14.13
2022-09-10T15:10:54.939Z,12.15
2022-09-10T15:14:01.088Z,13.85
2022-09-10T15:17:06.477Z,12.52
2022-09-10T15:20:15.295Z,4.75
2022-09-10T15:23:21.924Z,8.73
2022-09-10T15:26:27.133Z,7.28
2022-09-10T15:29:32.354Z,7.65
2022-09-10T15:32:37.349Z,10.13
2022-09-10T15:35:45.321Z,7.47
2022-09-10T15:38:50.620Z,7.85
2022-09-10T15:41:55.567Z,10.50
2022-09-10T15:45:00.612Z,8.90
2022-09-10T15:48:06.901Z,9.40
2022-09-10T15:51:15.513Z,12.68
2022-09-10T15:54:21.235Z,8.57
2022-09-10T15:57:26.359Z,12.50
2022-09-10T16:00:32.143Z,9.75
2022-09-10T16:03:37.388Z,10.48
2022-09-10T16:06:45.291Z,8.32
2022-09-10T16:09:50.365Z,10.40
2022-09-10T16:12:55.828Z,9.68
2022-09-10T16:16:01.901Z,10.60
2022-09-10T16:19:07.541Z,6.95
2022-09-10T16:22:19.968Z,8.63
2022-09-10T16:25:25.926Z,8.10
2022-09-10T16:28:31.003Z,11.02
2022-09-10T16:31:37.262Z,11.65
2022-09-10T16:34:42.723Z,7.82
2022-09-10T16:37:51.271Z,8.05
2022-09-10T16:44:02.104Z,7.88
2022-09-10T16:47:07.317Z,11.57
2022-09-10T16:50:13.390Z,13.00
2022-09-10T16:53:21.317Z,11.05
2022-09-10T16:56:26.732Z,9.60
2022-09-10T16:59:31.989Z,13.35
2022-09-10T17:02:38.008Z,10.13
2022-09-10T17:05:43.383Z,12.77
2022-09-10T17:08:51.185Z,14.90
2022-09-10T17:11:56.432Z,14.55
2022-09-10T17:15:01.944Z,15.38
2022-09-10T17:18:08.197Z,17.83
2022-09-10T17:21:13.656Z,11.25
2022-09-10T17:24:22.690Z,11.68
2022-09-10T17:27:27.969Z,9.50
2022-09-10T17:30:33.097Z,14.38
2022-09-10T17:33:39.357Z,18.95
2022-09-10T17:36:45.006Z,16.90
2022-09-10T17:39:53.042Z,17.08
2022-09-10T17:42:58.340Z,8.55
2022-09-10T17:46:05.740Z,17.63
2022-09-10T17:49:10.798Z,20.80
2022-09-10T17:52:16.159Z,24.98
2022-09-10T17:55:25.001Z,25.67
2022-09-10T18:01:38.181Z,22.05
2022-09-10T18:04:43.335Z,16.52
2022-09-10T18:07:48.441Z,17.95
2022-09-10T18:11:02.932Z,25.40
2022-09-10T18:14:09.049Z,25.20
2022-09-10T18:17:13.969Z,21.42
2022-09-10T18:20:19.036Z,16.83
2022-09-10T18:23:24.382Z,26.20
2022-09-10T18:26:33.365Z,22.75
2022-09-10T18:29:39.056Z,16.85
2022-09-10T18:32:44.144Z,25.92
2022-09-10T18:35:50.363Z,28.50
2022-09-10T18:38:56.016Z,27.20
2022-09-10T18:42:04.313Z,23.92
2022-09-10T18:45:09.985Z,20.80
2022-09-10T18:48:15.263Z,27.25
2022-09-10T18:51:22.381Z,23.75
2022-09-10T18:54:28.897Z,26.20
2022-09-10T18:57:36.873Z,28.30
2022-09-10T19:00:42.091Z,26.25
2022-09-10T19:03:48.033Z,30.92
2022-09-10T19:06:53.582Z,27.83
2022-09-10T19:10:00.418Z,26.17
2022-09-10T19:13:08.319Z,27.77
2022-09-10T19:16:13.489Z,33.83
2022-09-10T19:19:19.796Z,26.05
2022-09-10T19:22:24.793Z,24.17
2022-09-10T19:25:30.043Z,24.83
2022-09-10T19:28:39.818Z,20.90
2022-09-10T19:31:44.893Z,21.17
2022-09-10T19:34:52.245Z,22.17
2022-09-10T19:37:57.975Z,26.00
2022-09-10T19:41:06.967Z,24.30
2022-09-10T19:44:16.175Z,26.13
2022-09-10T19:47:21.281Z,29.70
2022-09-10T19:50:26.426Z,21.48
2022-09-10T19:53:31.900Z,24.75
2022-09-10T19:56:37.994Z,24.27
2022-09-10T19:59:46.062Z,26.13
2022-09-10T20:02:52.083Z,31.10
2022-09-10T20:05:57.529Z,33.92
2022-09-10T20:09:02.649Z,27.55
2022-09-10T20:12:08.435Z,30.52
2022-09-10T20:15:16.184Z,25.77
2022-09-10T20:18:21.587Z,27.20
2022-09-10T20:21:27.586Z,32.67
2022-09-10T20:24:32.677Z,26.30
2022-09-10T20:27:37.694Z,26.52
2022-09-10T20:30:45.566Z,23.13
2022-09-10T20:33:51.068Z,28.98
2022-09-10T20:36:56.228Z,32.03
2022-09-10T20:40:01.498Z,30.52
2022-09-10T20:43:08.047Z,30.75
2022-09-10T20:46:19.108Z,34.50
2022-09-10T20:49:24.110Z,29.95
2022-09-10T20:52:29.277Z,41.42
2022-09-10T20:55:34.491Z,33.45
2022-09-10T20:58:40.283Z,28.00
2022-09-10T21:01:51.035Z,33.05
2022-09-10T21:04:56.355Z,38.28
2022-09-10T21:08:01.465Z,35.92
2022-09-10T21:11:08.496Z,28.25
2022-09-10T21:14:15.315Z,30.50
2022-09-10T21:17:23.843Z,31.98
2022-09-10T21:20:28.870Z,32.88
2022-09-10T21:23:34.302Z,30.00
2022-09-10T21:26:40.702Z,26.85
2022-09-10T21:29:47.468Z,30.02
2022-09-10T21:32:55.109Z,30.60
2022-09-10T21:36:07.296Z,36.47
2022-09-10T21:39:15.239Z,26.38
2022-09-10T21:42:20.214Z,34.20
2022-09-10T21:45:26.296Z,45.50
2022-09-10T21:48:36.094Z,36.40
2022-09-10T21:51:41.381Z,43.72
2022-09-10T21:54:46.591Z,35.45
2022-09-10T21:57:51.769Z,36.40
2022-09-10T22:00:58.912Z,35.03
2022-09-10T22:04:06.494Z,32.80
2022-09-10T22:07:11.583Z,28.10
2022-09-10T22:10:18.912Z,29.67
2022-09-10T22:13:24.240Z,32.50
2022-09-10T22:16:29.536Z,34.47
2022-09-10T22:19:37.488Z,24.73
2022-09-10T22:22:43.322Z,30.33
2022-09-10T22:25:48.428Z,32.13
2022-09-10T22:28:54.740Z,27.17
2022-09-10T22:31:59.681Z,29.88
2022-09-10T22:35:07.850Z,35.13
2022-09-10T22:38:16.851Z,33.78
2022-09-10T22:41:24.512Z,29.35
2022-09-10T22:44:29.867Z,24.58
2022-09-10T22:47:34.801Z,28.63
2022-09-10T22:50:42.413Z,27.58
2022-09-10T22:53:48.385Z,27.60
2022-09-10T22:56:53.546Z,27.40
2022-09-10T22:59:58.850Z,32.35
2022-09-10T23:03:04.948Z,41.72
2022-09-10T23:06:15.085Z,27.92
2022-09-10T23:09:20.454Z,24.60
2022-09-10T23:12:25.937Z,26.02
2022-09-10T23:15:33.182Z,26.25
2022-09-10T23:18:38.800Z,29.27
2022-09-10T23:21:47.496Z,29.73
2022-09-10T23:27:57.487Z,27.13
2022-09-10T23:31:13.704Z,33.03
2022-09-10T23:34:20.035Z,29.55
2022-09-10T23:37:28.025Z,36.75
2022-09-10T23:40:34.302Z,33.40
2022-09-10T23:43:39.385Z,35.20
2022-09-10T23:46:44.966Z,32.58
2022-09-10T23:49:50.057Z,31.85
2022-09-10T23:52:58.165Z,34.20
2022-09-10T23:56:03.570Z,42.67
2022-09-10T23:59:08.802Z,37.22
